Time;durP1;ratioP1;P1;durP2;ratioP2;P2;SDS_P1;SDS_P2;PMS_P1;PMS_P2;Temp;Humidity;BMP_temperature;BMP_pressure;BME280_temperature;BME280_humidity;BME280_pressure;Samples;Min_cycle;Max_cycle;Signal;HPM_P1;HPM_P2
2023/07/30 00:00:51;;;;;;;6.30;5.73;;;16.90;99.90;;;;;;4990379;28;20213;-69
2023/07/30 00:03:18;;;;;;;6.53;5.27;;;16.90;99.90;;;;;;5001320;28;20205;-69
2023/07/30 00:05:52;;;;;;;6.27;5.67;;;16.90;99.90;;;;;;4990440;28;20197;-69
2023/07/30 00:08:19;;;;;;;6.60;6.10;;;16.90;99.90;;;;;;4998684;28;20282;-69
2023/07/30 00:10:46;;;;;;;7.67;6.40;;;16.90;99.90;;;;;;4999603;28;20200;-69
2023/07/30 00:13:13;;;;;;;7.70;6.33;;;16.80;99.90;;;;;;4980876;28;20700;-68
2023/07/30 00:15:41;;;;;;;6.67;5.97;;;16.90;99.90;;;;;;4988687;28;20210;-68
2023/07/30 00:18:08;;;;;;;6.70;5.87;;;16.90;99.90;;;;;;4991901;28;20193;-68
2023/07/30 00:20:36;;;;;;;7.53;6.27;;;16.90;99.90;;;;;;4992789;28;20212;-68
2023/07/30 00:23:03;;;;;;;9.13;6.30;;;16.90;99.90;;;;;;4995015;28;21039;-68
2023/07/30 00:25:29;;;;;;;7.10;6.40;;;17.00;99.90;;;;;;5001440;28;20209;-69
2023/07/30 00:27:56;;;;;;;7.17;6.43;;;17.00;99.90;;;;;;4996730;28;20262;-69
2023/07/30 00:30:23;;;;;;;8.17;6.50;;;17.00;99.90;;;;;;4980703;28;20212;-68
2023/07/30 00:32:51;;;;;;;8.70;6.83;;;17.00;99.90;;;;;;4994729;28;20228;-68
2023/07/30 00:35:18;;;;;;;8.70;7.40;;;17.00;99.90;;;;;;5003941;28;20727;-69
2023/07/30 00:37:45;;;;;;;7.67;6.97;;;17.00;99.90;;;;;;4974976;28;20227;-68
2023/07/30 00:40:13;;;;;;;10.30;7.77;;;17.00;99.90;;;;;;4998841;28;20716;-69
2023/07/30 00:42:39;;;;;;;6.33;5.67;;;17.00;99.90;;;;;;4980735;28;20197;-69
2023/07/30 00:45:08;;;;;;;6.03;5.47;;;17.00;99.90;;;;;;4980807;28;20967;-68
2023/07/30 00:47:34;;;;;;;5.77;5.17;;;16.90;99.90;;;;;;4994094;28;20204;-68
2023/07/30 00:50:03;;;;;;;6.23;5.70;;;16.90;99.90;;;;;;4999530;28;20185;-68
2023/07/30 00:52:30;;;;;;;6.33;5.30;;;16.90;99.90;;;;;;4990990;28;20568;-68
2023/07/30 00:54:58;;;;;;;5.37;4.87;;;16.90;99.90;;;;;;4994147;28;20283;-68
2023/07/30 00:57:26;;;;;;;4.63;4.23;;;16.90;99.90;;;;;;4999396;28;20211;-69
2023/07/30 00:59:53;;;;;;;5.07;4.57;;;16.90;99.90;;;;;;4983431;28;26236;-69
2023/07/30 01:02:21;;;;;;;4.77;4.37;;;16.90;99.90;;;;;;4985923;28;20248;-69
2023/07/30 01:04:49;;;;;;;4.77;4.37;;;16.90;99.90;;;;;;4993736;28;20232;-68
2023/07/30 01:07:17;;;;;;;5.93;4.97;;;16.90;99.90;;;;;;4993647;28;20191;-69
2023/07/30 01:09:44;;;;;;;4.77;4.33;;;16.90;99.90;;;;;;4983270;28;20197;-69
2023/07/30 01:12:11;;;;;;;3.37;3.07;;;16.80;99.90;;;;;;4982934;28;20575;-68
2023/07/30 01:14:40;;;;;;;5.00;3.20;;;16.80;99.90;;;;;;5001730;28;20224;-68
2023/07/30 01:17:07;;;;;;;3.80;3.50;;;16.70;99.90;;;;;;4961045;28;20201;-68
2023/07/30 01:19:34;;;;;;;3.70;3.40;;;16.70;99.90;;;;;;4987554;28;20236;-69
2023/07/30 01:22:02;;;;;;;3.33;2.97;;;16.60;99.90;;;;;;4998652;28;20263;-69
2023/07/30 01:24:29;;;;;;;4.70;3.30;;;16.60;99.90;;;;;;4980246;28;21046;-69
2023/07/30 01:27:01;;;;;;;3.63;3.30;;;16.70;99.90;;;;;;4999806;28;20186;-70
2023/07/30 01:29:33;;;;;;;3.37;3.07;;;16.70;99.90;;;;;;4983837;28;20197;-69
2023/07/30 01:32:05;;;;;;;3.80;3.50;;;16.60;99.90;;;;;;4967261;28;21979;-69
2023/07/30 01:34:35;;;;;;;3.60;3.30;;;16.60;99.90;;;;;;5001657;28;20220;-69
2023/07/30 01:37:05;;;;;;;3.80;3.50;;;16.50;99.90;;;;;;4986600;28;20205;-70
2023/07/30 01:39:34;;;;;;;3.90;3.60;;;16.50;99.90;;;;;;4988490;28;20220;-69
2023/07/30 01:42:01;;;;;;;4.90;3.10;;;16.50;99.90;;;;;;4992705;28;20204;-69
2023/07/30 01:44:28;;;;;;;7.83;3.87;;;16.50;99.90;;;;;;4994839;28;20224;-68
2023/07/30 01:46:54;;;;;;;4.57;4.17;;;16.50;99.90;;;;;;4969802;28;20997;-68
2023/07/30 01:49:21;;;;;;;5.20;4.13;;;16.50;99.90;;;;;;5000144;28;20201;-69
2023/07/30 01:51:49;;;;;;;4.37;3.97;;;16.40;99.90;;;;;;4973512;28;20677;-69
2023/07/30 01:54:17;;;;;;;4.60;4.20;;;16.40;99.90;;;;;;4990131;28;20311;-69
2023/07/30 01:56:44;;;;;;;4.40;4.10;;;16.40;99.90;;;;;;4984233;28;20676;-68
2023/07/30 01:59:11;;;;;;;4.60;4.20;;;16.40;99.90;;;;;;4991858;28;20830;-69
2023/07/30 02:01:37;;;;;;;4.53;4.23;;;16.40;99.90;;;;;;4989761;28;20208;-69
2023/07/30 02:04:04;;;;;;;5.13;4.70;;;16.40;99.90;;;;;;4962858;28;20271;-69
2023/07/30 02:06:31;;;;;;;5.13;4.73;;;16.30;99.90;;;;;;4982684;28;20620;-69
2023/07/30 02:08:58;;;;;;;5.53;4.70;;;16.30;99.90;;;;;;4967143;28;21060;-69
2023/07/30 02:11:26;;;;;;;5.73;5.23;;;16.30;99.90;;;;;;4978046;28;20205;-69
2023/07/30 02:13:53;;;;;;;5.57;5.00;;;16.30;99.90;;;;;;4989883;28;20224;-69
2023/07/30 02:16:20;;;;;;;6.77;4.87;;;16.30;99.90;;;;;;4993156;28;20656;-69
2023/07/30 02:18:47;;;;;;;7.80;5.83;;;16.30;99.90;;;;;;4949451;28;20685;-69
2023/07/30 02:21:14;;;;;;;6.07;5.47;;;16.20;99.90;;;;;;4984688;28;20216;-69
2023/07/30 02:23:41;;;;;;;6.37;5.77;;;16.20;99.90;;;;;;4991192;28;20274;-70
2023/07/30 02:26:07;;;;;;;5.80;5.30;;;16.20;99.90;;;;;;4992244;28;20208;-69
2023/07/30 02:28:36;;;;;;;7.60;5.77;;;16.20;99.90;;;;;;4983174;28;20196;-69
2023/07/30 02:31:02;;;;;;;6.10;5.60;;;16.20;99.90;;;;;;4995689;28;20784;-69
2023/07/30 02:33:29;;;;;;;5.83;5.37;;;16.20;99.90;;;;;;5003228;28;20213;-70
2023/07/30 02:35:56;;;;;;;8.10;5.50;;;16.10;99.90;;;;;;4962132;28;20941;-69
2023/07/30 02:38:23;;;;;;;5.83;5.33;;;16.10;99.90;;;;;;4994272;28;20203;-69
2023/07/30 02:40:50;;;;;;;5.93;5.43;;;16.20;99.90;;;;;;4985406;28;20236;-69
2023/07/30 02:43:17;;;;;;;6.40;5.57;;;16.20;99.90;;;;;;4996516;28;20193;-70
2023/07/30 02:45:48;;;;;;;6.43;5.77;;;16.10;99.90;;;;;;4985835;28;20204;-69
2023/07/30 02:48:15;;;;;;;6.27;5.67;;;16.10;99.90;;;;;;4986535;28;20676;-70
2023/07/30 02:50:41;;;;;;;6.10;5.37;;;16.10;99.90;;;;;;4971028;28;20261;-69
2023/07/30 02:53:08;;;;;;;5.13;4.73;;;16.10;99.90;;;;;;4990246;28;20208;-69
2023/07/30 02:55:35;;;;;;;6.17;5.17;;;16.10;99.90;;;;;;4993970;28;20193;-69
2023/07/30 02:58:02;;;;;;;6.30;5.70;;;16.00;99.90;;;;;;4994993;28;20247;-69
2023/07/30 03:00:29;;;;;;;6.67;6.07;;;16.00;99.90;;;;;;4979331;28;20307;-70
2023/07/30 03:02:57;;;;;;;6.33;5.73;;;16.00;99.90;;;;;;5008516;28;20216;-70
2023/07/30 03:05:24;;;;;;;6.10;5.60;;;16.00;99.90;;;;;;4973533;28;20865;-69
2023/07/30 03:07:51;;;;;;;8.13;6.30;;;16.00;99.90;;;;;;4981890;28;20216;-69
2023/07/30 03:10:18;;;;;;;6.63;5.93;;;16.00;99.90;;;;;;4977946;28;20190;-70
2023/07/30 03:12:45;;;;;;;6.30;5.70;;;15.90;99.90;;;;;;4984061;28;20252;-69
2023/07/30 03:15:12;;;;;;;6.47;5.80;;;16.00;99.90;;;;;;4996814;28;20223;-70
2023/07/30 03:17:39;;;;;;;7.03;6.43;;;16.00;99.90;;;;;;4991658;28;20201;-70
2023/07/30 03:20:08;;;;;;;8.43;6.30;;;16.00;99.90;;;;;;4996283;28;20623;-69
2023/07/30 03:22:36;;;;;;;6.80;6.20;;;16.00;99.90;;;;;;4962405;28;20208;-70
2023/07/30 03:25:03;;;;;;;6.60;5.80;;;16.00;99.90;;;;;;4995596;28;20299;-69
2023/07/30 03:27:30;;;;;;;7.73;7.03;;;15.90;99.90;;;;;;4998443;28;20197;-69
2023/07/30 03:29:57;;;;;;;7.93;6.67;;;15.90;99.90;;;;;;4972156;28;20197;-69
2023/07/30 03:32:24;;;;;;;7.63;6.83;;;15.90;99.90;;;;;;4990636;28;20200;-69
2023/07/30 03:34:51;;;;;;;9.03;6.93;;;15.80;99.90;;;;;;4987629;28;20366;-69
2023/07/30 03:37:19;;;;;;;9.07;6.73;;;15.90;99.90;;;;;;4997257;28;20228;-69
2023/07/30 03:39:46;;;;;;;9.10;7.30;;;15.80;99.90;;;;;;4980554;28;20224;-69
2023/07/30 03:42:13;;;;;;;8.33;7.57;;;15.80;99.90;;;;;;4997093;28;20201;-69
2023/07/30 03:44:39;;;;;;;7.30;6.67;;;15.80;99.90;;;;;;4992210;28;20220;-69
2023/07/30 03:47:06;;;;;;;13.50;7.67;;;15.80;99.90;;;;;;5000852;28;20295;-69
2023/07/30 03:49:34;;;;;;;7.90;7.10;;;15.80;99.90;;;;;;4997193;28;20188;-69
2023/07/30 03:52:01;;;;;;;7.93;7.13;;;15.70;99.90;;;;;;4994099;28;20291;-69
2023/07/30 03:54:30;;;;;;;9.00;6.97;;;15.70;99.90;;;;;;4969966;28;20216;-69
2023/07/30 03:56:57;;;;;;;7.90;7.10;;;15.70;99.90;;;;;;4990548;28;20204;-69
2023/07/30 03:59:24;;;;;;;7.63;6.60;;;15.70;99.90;;;;;;4992473;28;20259;-69
2023/07/30 04:01:51;;;;;;;9.13;7.50;;;15.70;99.90;;;;;;4980345;28;20198;-70
2023/07/30 04:04:18;;;;;;;7.13;6.53;;;15.70;99.90;;;;;;4971884;28;20245;-69
2023/07/30 04:06:44;;;;;;;9.47;7.57;;;15.80;99.90;;;;;;4991787;28;20204;-69
2023/07/30 04:09:12;;;;;;;8.50;7.53;;;15.70;99.90;;;;;;4988055;28;20204;-70
2023/07/30 04:11:40;;;;;;;8.10;7.03;;;15.70;99.90;;;;;;4976334;28;20197;-69
2023/07/30 04:14:08;;;;;;;8.40;7.50;;;15.60;99.90;;;;;;4986168;28;20224;-69
2023/07/30 04:16:35;;;;;;;7.20;6.53;;;15.60;99.90;;;;;;4989246;28;20200;-69
2023/07/30 04:19:02;;;;;;;8.17;6.80;;;15.60;99.90;;;;;;4992091;28;20209;-69
2023/07/30 04:21:29;;;;;;;9.10;7.87;;;15.60;99.90;;;;;;4991999;28;20280;-69
2023/07/30 04:23:56;;;;;;;7.63;6.93;;;15.60;99.90;;;;;;4992194;28;20236;-69
2023/07/30 04:26:23;;;;;;;7.70;6.90;;;15.60;99.90;;;;;;4966655;28;20212;-69
2023/07/30 04:28:51;;;;;;;8.17;7.37;;;15.60;99.90;;;;;;4994877;28;20204;-69
2023/07/30 04:31:18;;;;;;;9.57;7.67;;;15.60;99.90;;;;;;4988188;28;20203;-69
2023/07/30 04:33:45;;;;;;;8.13;7.53;;;15.70;99.90;;;;;;4997523;28;20414;-68
2023/07/30 04:36:12;;;;;;;12.47;8.17;;;15.70;99.90;;;;;;5013973;28;20291;-70
2023/07/30 04:38:38;;;;;;;8.37;7.43;;;15.70;99.90;;;;;;4981116;28;20263;-68
2023/07/30 04:41:05;;;;;;;10.40;7.97;;;15.70;99.90;;;;;;4967571;28;20225;-68
2023/07/30 04:43:38;;;;;;;12.70;8.20;;;15.70;99.90;;;;;;4976118;28;20313;-69
2023/07/30 04:46:06;;;;;;;9.93;8.90;;;15.70;99.90;;;;;;5004092;28;20215;-69
2023/07/30 04:48:33;;;;;;;13.17;8.73;;;15.70;99.90;;;;;;4976028;28;20193;-68
2023/07/30 04:51:00;;;;;;;8.33;7.53;;;15.70;99.90;;;;;;4999681;28;20565;-68
2023/07/30 04:53:27;;;;;;;13.43;9.03;;;15.80;99.90;;;;;;4975076;28;20228;-69
2023/07/30 04:55:57;;;;;;;9.93;8.67;;;15.80;99.90;;;;;;4972582;28;20224;-68
2023/07/30 04:58:25;;;;;;;12.30;9.47;;;15.90;99.90;;;;;;4978684;28;20192;-68
2023/07/30 05:00:52;;;;;;;9.97;8.67;;;15.90;99.90;;;;;;5004191;28;20696;-69
2023/07/30 05:03:20;;;;;;;9.20;8.30;;;15.90;99.90;;;;;;4995031;28;20569;-69
2023/07/30 05:05:47;;;;;;;11.80;8.60;;;16.00;99.90;;;;;;4997940;28;20964;-69
2023/07/30 05:08:13;;;;;;;10.57;8.47;;;16.00;99.90;;;;;;4993948;28;20212;-69
2023/07/30 05:10:40;;;;;;;11.70;8.30;;;16.00;99.90;;;;;;4999207;28;20723;-69
2023/07/30 05:13:08;;;;;;;9.60;8.37;;;16.10;99.90;;;;;;4975169;28;20212;-69
2023/07/30 05:15:35;;;;;;;10.10;8.27;;;16.10;99.90;;;;;;4984879;28;20232;-69
2023/07/30 05:18:02;;;;;;;11.20;7.80;;;16.10;99.90;;;;;;4986367;28;20204;-69
2023/07/30 05:20:30;;;;;;;10.03;7.70;;;16.20;99.90;;;;;;4994899;28;20216;-69
2023/07/30 05:22:57;;;;;;;10.97;7.50;;;16.20;99.90;;;;;;4992489;28;20208;-69
2023/07/30 05:25:24;;;;;;;12.33;8.10;;;16.20;99.90;;;;;;4996943;28;20275;-69
2023/07/30 05:27:51;;;;;;;12.40;7.10;;;16.30;99.90;;;;;;4985430;28;20267;-68
2023/07/30 05:30:18;;;;;;;11.33;7.23;;;16.30;99.90;;;;;;4988650;28;20193;-69
2023/07/30 05:32:44;;;;;;;10.27;7.20;;;16.30;99.90;;;;;;4997018;28;20192;-69
2023/07/30 05:35:11;;;;;;;12.07;6.90;;;16.30;99.90;;;;;;4996721;28;20221;-68
2023/07/30 05:37:39;;;;;;;8.90;7.03;;;16.30;99.90;;;;;;4982058;28;20237;-69
2023/07/30 05:40:08;;;;;;;8.70;6.70;;;16.40;99.90;;;;;;4980983;28;20228;-68
2023/07/30 05:42:34;;;;;;;8.33;7.43;;;16.40;99.90;;;;;;4990706;28;20204;-67
2023/07/30 05:45:04;;;;;;;11.73;7.23;;;16.40;99.90;;;;;;4980908;28;20236;-66
2023/07/30 05:47:30;;;;;;;10.03;5.87;;;16.50;99.90;;;;;;4998979;28;20188;-67
2023/07/30 05:49:57;;;;;;;11.40;6.33;;;16.50;99.90;;;;;;5004134;28;20200;-67
2023/07/30 05:52:24;;;;;;;11.23;6.13;;;16.50;99.90;;;;;;4994636;28;20193;-67
2023/07/30 05:54:52;;;;;;;9.27;6.67;;;16.50;99.90;;;;;;4993717;28;20231;-67
2023/07/30 05:57:19;;;;;;;9.67;6.73;;;16.60;99.90;;;;;;4991797;28;20209;-66
2023/07/30 05:59:46;;;;;;;14.17;6.40;;;16.60;99.90;;;;;;4977622;28;20208;-67
2023/07/30 06:02:13;;;;;;;11.03;6.63;;;16.60;99.90;;;;;;4998777;28;20256;-67
2023/07/30 06:04:40;;;;;;;8.10;6.30;;;16.70;99.90;;;;;;4988876;28;20224;-67
2023/07/30 06:07:07;;;;;;;8.97;6.00;;;16.70;99.90;;;;;;5001741;28;20205;-67
2023/07/30 06:09:35;;;;;;;8.40;6.67;;;16.70;99.90;;;;;;4994841;28;20911;-67
2023/07/30 06:12:04;;;;;;;13.17;6.20;;;16.70;99.90;;;;;;5000982;28;20219;-67
2023/07/30 06:14:31;;;;;;;10.90;6.40;;;16.80;99.90;;;;;;4963709;28;20221;-67
2023/07/30 06:16:57;;;;;;;12.00;6.53;;;16.80;99.90;;;;;;4990498;28;20727;-67
2023/07/30 06:19:24;;;;;;;8.17;5.77;;;16.80;99.90;;;;;;4976154;28;20196;-67
2023/07/30 06:21:52;;;;;;;7.77;6.40;;;16.80;99.90;;;;;;4988887;28;20212;-66
2023/07/30 06:24:18;;;;;;;10.50;6.60;;;16.90;99.90;;;;;;4996360;28;20995;-67
2023/07/30 06:26:45;;;;;;;11.33;6.33;;;16.90;99.90;;;;;;4975137;28;20225;-67
2023/07/30 06:29:14;;;;;;;14.23;6.20;;;16.90;99.90;;;;;;4989698;28;20193;-67
2023/07/30 06:31:41;;;;;;;13.57;6.50;;;17.00;99.90;;;;;;4975969;28;20212;-67
2023/07/30 06:34:07;;;;;;;11.57;7.47;;;16.90;99.90;;;;;;4987843;28;20875;-66
2023/07/30 06:36:35;;;;;;;12.73;6.80;;;17.00;99.90;;;;;;4990984;28;20208;-66
2023/07/30 06:39:01;;;;;;;12.80;6.63;;;17.00;99.90;;;;;;4993397;28;20889;-66
2023/07/30 06:41:28;;;;;;;13.27;7.40;;;17.00;99.90;;;;;;4983386;28;20859;-66
2023/07/30 06:43:55;;;;;;;11.40;6.83;;;17.10;99.90;;;;;;4985406;28;21006;-66
2023/07/30 06:46:23;;;;;;;16.30;7.00;;;17.20;99.90;;;;;;5001703;28;20203;-66
2023/07/30 06:48:50;;;;;;;10.73;7.03;;;17.30;99.90;;;;;;4981519;28;20224;-66
2023/07/30 06:51:20;;;;;;;16.23;7.50;;;17.30;99.90;;;;;;4984171;28;20204;-65
2023/07/30 06:53:47;;;;;;;11.00;6.87;;;17.40;99.90;;;;;;4985180;28;20228;-65
2023/07/30 06:56:14;;;;;;;15.80;7.87;;;17.40;99.90;;;;;;4992328;28;20278;-65
2023/07/30 06:58:40;;;;;;;17.50;8.10;;;17.50;99.90;;;;;;4996971;28;20193;-65
2023/07/30 07:01:07;;;;;;;16.00;7.83;;;17.50;99.90;;;;;;4976591;28;20806;-65
2023/07/30 07:03:35;;;;;;;14.83;9.00;;;17.50;99.90;;;;;;4989414;28;20228;-66
2023/07/30 07:06:02;;;;;;;16.73;10.20;;;17.60;99.90;;;;;;4989463;28;20192;-65
2023/07/30 07:08:29;;;;;;;20.80;10.13;;;17.60;99.90;;;;;;4992757;28;20204;-66
2023/07/30 07:10:56;;;;;;;16.00;9.83;;;17.60;99.90;;;;;;4997399;28;20243;-65
2023/07/30 07:13:23;;;;;;;19.50;9.73;;;17.50;99.90;;;;;;4993340;28;20232;-65
2023/07/30 07:15:50;;;;;;;17.33;10.10;;;17.50;99.90;;;;;;4996498;28;20208;-66
2023/07/30 07:18:16;;;;;;;19.93;10.73;;;17.50;99.90;;;;;;4976516;28;20224;-65
2023/07/30 07:20:45;;;;;;;22.03;10.30;;;17.60;99.90;;;;;;4987143;28;20216;-65
2023/07/30 07:23:11;;;;;;;18.70;10.47;;;17.60;99.90;;;;;;4990626;28;20548;-66
2023/07/30 07:25:39;;;;;;;17.73;9.80;;;17.70;99.90;;;;;;4990009;28;20209;-65
2023/07/30 07:28:05;;;;;;;16.17;9.73;;;17.60;99.90;;;;;;4988184;28;20897;-65
2023/07/30 07:30:35;;;;;;;14.10;9.13;;;17.70;99.90;;;;;;5001364;28;20216;-65
2023/07/30 07:33:02;;;;;;;16.57;10.03;;;17.80;99.90;;;;;;4980582;28;20220;-66
2023/07/30 07:35:29;;;;;;;17.97;9.50;;;17.80;99.90;;;;;;5005583;28;20794;-66
2023/07/30 07:37:57;;;;;;;17.17;10.67;;;17.80;99.90;;;;;;4989615;28;23003;-66
2023/07/30 07:40:24;;;;;;;27.00;11.07;;;17.90;99.90;;;;;;4983332;28;20669;-66
2023/07/30 07:42:51;;;;;;;15.80;10.07;;;18.00;99.90;;;;;;4985071;28;20263;-65
2023/07/30 07:45:18;;;;;;;17.27;9.47;;;18.00;99.90;;;;;;5008318;28;20263;-65
2023/07/30 07:47:44;;;;;;;14.80;9.33;;;18.10;99.90;;;;;;5003620;28;20205;-65
2023/07/30 07:50:11;;;;;;;14.73;9.53;;;18.10;99.90;;;;;;4984882;28;20200;-67
2023/07/30 07:52:38;;;;;;;12.63;8.97;;;18.10;99.90;;;;;;4988448;28;20258;-65
2023/07/30 07:55:07;;;;;;;19.23;10.07;;;18.20;99.90;;;;;;4995032;28;20228;-65
2023/07/30 07:57:34;;;;;;;17.20;8.43;;;18.20;99.90;;;;;;4999552;28;20743;-65
2023/07/30 08:00:01;;;;;;;12.47;8.43;;;18.30;99.90;;;;;;4980055;28;20286;-65
2023/07/30 08:02:27;;;;;;;20.23;8.80;;;18.30;99.90;;;;;;5003628;28;20208;-65
2023/07/30 08:04:55;;;;;;;14.37;8.87;;;18.30;99.90;;;;;;4974909;28;20254;-65
2023/07/30 08:07:21;;;;;;;15.80;9.80;;;18.30;99.90;;;;;;4999949;28;20616;-65
2023/07/30 08:09:48;;;;;;;20.10;9.20;;;18.40;99.90;;;;;;4980719;28;20205;-65
2023/07/30 08:12:16;;;;;;;16.80;8.27;;;18.40;99.90;;;;;;5005551;28;20248;-65
2023/07/30 08:14:43;;;;;;;15.37;7.87;;;18.50;99.90;;;;;;4988898;28;20216;-64
2023/07/30 08:17:10;;;;;;;12.27;7.53;;;18.60;99.90;;;;;;4999261;28;20299;-65
2023/07/30 08:19:37;;;;;;;19.00;7.77;;;18.60;99.90;;;;;;4994965;28;20213;-65
2023/07/30 08:22:04;;;;;;;19.63;7.40;;;18.70;99.90;;;;;;4984758;28;21686;-66
2023/07/30 08:24:31;;;;;;;16.30;7.60;;;18.90;99.90;;;;;;5003833;28;20274;-65
2023/07/30 08:26:58;;;;;;;15.73;7.20;;;18.90;99.90;;;;;;4989949;28;20201;-66
2023/07/30 08:29:27;;;;;;;18.07;6.17;;;19.00;99.90;;;;;;4993582;28;20634;-65
2023/07/30 08:31:54;;;;;;;13.60;6.10;;;19.10;99.90;;;;;;4992657;28;20196;-66
2023/07/30 08:34:22;;;;;;;13.80;6.60;;;19.20;99.90;;;;;;5000973;28;20221;-65
2023/07/30 08:36:49;;;;;;;14.00;6.60;;;19.20;99.90;;;;;;4983552;28;20209;-65
2023/07/30 08:39:16;;;;;;;15.23;6.40;;;19.30;99.90;;;;;;4988959;28;20200;-65
2023/07/30 08:41:43;;;;;;;12.67;5.87;;;19.30;99.90;;;;;;4992246;28;20212;-65
2023/07/30 08:44:10;;;;;;;11.27;5.97;;;19.30;99.90;;;;;;5000807;28;20220;-65
2023/07/30 08:46:38;;;;;;;9.70;5.97;;;19.40;99.90;;;;;;4987162;28;20905;-66
2023/07/30 08:49:06;;;;;;;15.63;6.57;;;19.50;99.90;;;;;;4998210;28;20709;-66
2023/07/30 08:51:36;;;;;;;10.33;6.80;;;19.60;99.90;;;;;;4973881;28;21008;-65
2023/07/30 08:54:03;;;;;;;11.23;6.20;;;19.70;99.90;;;;;;4996837;28;20240;-66
2023/07/30 08:56:31;;;;;;;10.33;6.53;;;19.80;99.90;;;;;;4973818;28;20786;-66
2023/07/30 08:59:00;;;;;;;10.00;6.30;;;19.90;99.90;;;;;;5003110;28;20208;-66
2023/07/30 09:01:31;;;;;;;12.57;6.27;;;20.00;99.90;;;;;;4990545;28;20303;-66
2023/07/30 09:04:01;;;;;;;10.67;5.97;;;20.10;99.90;;;;;;4996314;28;20225;-66
2023/07/30 09:06:27;;;;;;;15.50;5.40;;;20.00;99.90;;;;;;4972262;28;20208;-66
2023/07/30 09:08:54;;;;;;;10.03;4.43;;;19.90;99.90;;;;;;4996738;28;20197;-68
2023/07/30 09:11:25;;;;;;;11.90;5.03;;;19.90;99.90;;;;;;4987533;28;20201;-65
2023/07/30 09:13:54;;;;;;;8.07;4.07;;;19.90;99.90;;;;;;4983590;28;20220;-65
2023/07/30 09:16:26;;;;;;;10.67;4.77;;;20.00;99.90;;;;;;4980193;28;20284;-68
2023/07/30 09:18:53;;;;;;;8.10;3.50;;;20.10;99.90;;;;;;4993624;28;20260;-66
2023/07/30 09:21:30;;;;;;;12.43;3.95;;;20.10;99.90;;;;;;4971949;28;20220;-66
2023/07/30 09:23:57;;;;;;;5.60;3.47;;;20.00;99.90;;;;;;4947985;28;1263317;-66
2023/07/30 09:26:24;;;;;;;8.63;3.50;;;20.10;99.90;;;;;;4977599;28;20478;-66
2023/07/30 09:28:51;;;;;;;7.80;3.55;;;20.00;99.90;;;;;;4967307;28;20291;-66
2023/07/30 09:31:18;;;;;;;11.13;4.00;;;20.10;99.90;;;;;;4988324;28;20223;-65
2023/07/30 09:33:45;;;;;;;7.97;3.35;;;20.10;99.90;;;;;;4989665;28;21155;-68
2023/07/30 09:36:12;;;;;;;8.15;3.30;;;20.20;99.90;;;;;;4987439;28;20197;-66
2023/07/30 09:38:43;;;;;;;14.75;3.67;;;20.20;99.90;;;;;;4993023;28;20196;-66
2023/07/30 09:41:12;;;;;;;6.90;3.38;;;20.30;99.90;;;;;;4995124;28;20193;-67
2023/07/30 09:43:39;;;;;;;9.52;3.20;;;20.30;99.90;;;;;;4981123;28;20224;-67
2023/07/30 09:46:07;;;;;;;7.88;2.95;;;20.30;99.90;;;;;;4992722;28;20271;-67
2023/07/30 09:48:35;;;;;;;8.90;2.92;;;20.40;99.90;;;;;;4992291;28;20556;-67
2023/07/30 09:51:03;;;;;;;6.13;2.63;;;20.40;99.90;;;;;;4990769;28;20822;-66
2023/07/30 09:53:34;;;;;;;7.65;2.78;;;20.30;99.90;;;;;;4984057;28;20208;-67
2023/07/30 09:56:02;;;;;;;7.70;2.95;;;20.30;99.90;;;;;;5000885;28;20196;-66
2023/07/30 09:58:29;;;;;;;8.10;2.75;;;20.20;99.90;;;;;;4996074;28;20200;-66
2023/07/30 10:00:58;;;;;;;7.18;3.45;;;20.10;99.90;;;;;;4969812;28;20205;-66
2023/07/30 10:03:25;;;;;;;12.20;3.83;;;20.00;99.90;;;;;;4986466;28;20248;-67
2023/07/30 10:05:58;;;;;;;10.10;3.80;;;20.00;99.90;;;;;;5003903;28;20247;-67
2023/07/30 10:08:27;;;;;;;8.82;3.28;;;20.00;99.90;;;;;;4979965;28;20287;-67
2023/07/30 10:10:56;;;;;;;11.98;4.38;;;19.90;99.90;;;;;;4995761;28;20209;-66
2023/07/30 10:13:25;;;;;;;7.90;3.30;;;19.90;99.90;;;;;;4993900;28;20206;-66
2023/07/30 10:15:52;;;;;;;11.77;4.03;;;19.90;99.90;;;;;;4994692;28;20872;-66
2023/07/30 10:18:20;;;;;;;13.45;4.13;;;20.10;99.90;;;;;;4994044;28;20272;-65
2023/07/30 10:20:54;;;;;;;5.32;3.80;;;20.20;99.90;;;;;;4984378;28;20259;-66
2023/07/30 10:23:21;;;;;;;10.35;4.47;;;20.50;99.90;;;;;;4961315;28;20220;-66
2023/07/30 10:25:49;;;;;;;8.57;3.83;;;20.50;99.90;;;;;;4991587;28;20281;-66
2023/07/30 10:28:33;;;;;;;5.75;3.85;;;20.50;99.90;;;;;;4972941;28;20208;-66
2023/07/30 10:31:03;;;;;;;7.95;4.00;;;20.50;99.90;;;;;;4997043;28;20193;-66
2023/07/30 10:33:45;;;;;;;10.52;4.25;;;20.50;99.90;;;;;;4998750;28;20302;-66
2023/07/30 10:36:13;;;;;;;9.50;4.80;;;20.40;99.90;;;;;;4993594;28;20801;-66
2023/07/30 10:38:41;;;;;;;6.45;3.85;;;20.40;99.90;;;;;;4976128;28;20290;-67
2023/07/30 10:41:11;;;;;;;6.13;4.10;;;20.40;99.90;;;;;;4990141;28;20220;-66
2023/07/30 10:43:41;;;;;;;10.98;3.47;;;20.40;99.90;;;;;;4996720;28;20232;-66
2023/07/30 10:46:08;;;;;;;5.10;3.53;;;20.30;99.90;;;;;;4993622;28;20270;-65
2023/07/30 10:48:36;;;;;;;9.32;4.50;;;20.20;99.90;;;;;;4991974;28;20202;-66
2023/07/30 10:51:06;;;;;;;7.50;3.80;;;20.10;99.90;;;;;;4987739;28;20228;-66
2023/07/30 10:53:33;;;;;;;5.65;4.30;;;20.10;99.90;;;;;;4984463;28;20220;-65
2023/07/30 10:56:02;;;;;;;5.32;4.00;;;20.10;99.90;;;;;;4979002;28;20228;-67
2023/07/30 10:58:30;;;;;;;8.07;3.78;;;20.10;99.90;;;;;;4990991;28;20895;-66
2023/07/30 11:00:59;;;;;;;8.23;3.63;;;20.20;99.90;;;;;;4986204;28;20289;-66
2023/07/30 11:03:27;;;;;;;10.30;3.60;;;20.30;99.90;;;;;;4976528;28;20208;-66
2023/07/30 11:05:54;;;;;;;5.53;2.83;;;20.40;99.90;;;;;;4988329;28;20203;-66
2023/07/30 11:08:33;;;;;;;10.45;3.78;;;20.40;99.90;;;;;;4975290;28;20298;-66
2023/07/30 11:11:00;;;;;;;6.53;2.72;;;20.40;99.90;;;;;;4979713;28;20200;-67
2023/07/30 11:13:27;;;;;;;6.93;2.88;;;20.50;99.90;;;;;;4982633;28;20299;-66
2023/07/30 11:15:54;;;;;;;6.10;2.75;;;20.50;99.90;;;;;;4989335;28;20693;-67
2023/07/30 11:18:22;;;;;;;7.20;2.40;;;20.60;99.90;;;;;;4991906;28;20193;-67
2023/07/30 11:20:50;;;;;;;5.57;2.22;;;20.50;99.90;;;;;;4989833;28;20602;-67
2023/07/30 11:23:21;;;;;;;5.60;2.30;;;20.50;99.90;;;;;;4986537;28;20220;-67
2023/07/30 11:25:49;;;;;;;2.78;1.73;;;20.50;99.90;;;;;;4971127;28;20209;-66
2023/07/30 11:28:29;;;;;;;8.27;2.10;;;20.50;99.90;;;;;;4991785;28;20280;-65
2023/07/30 11:30:58;;;;;;;5.28;1.85;;;20.50;99.90;;;;;;4996304;28;20236;-69
2023/07/30 11:33:27;;;;;;;5.78;1.95;;;20.60;99.90;;;;;;4978115;28;20193;-69
2023/07/30 11:35:54;;;;;;;2.72;2.00;;;20.60;99.90;;;;;;4979481;28;20204;-69
2023/07/30 11:38:22;;;;;;;4.55;1.75;;;20.60;99.90;;;;;;4990919;28;20201;-69
2023/07/30 11:40:49;;;;;;;4.57;1.90;;;20.60;99.90;;;;;;4975359;28;20497;-66
2023/07/30 11:43:16;;;;;;;6.50;1.83;;;21.00;99.90;;;;;;4999810;28;20648;-66
2023/07/30 11:45:43;;;;;;;5.57;1.77;;;21.20;99.90;;;;;;4992934;28;20247;-66
2023/07/30 11:48:11;;;;;;;7.18;1.70;;;21.30;99.90;;;;;;4994099;28;20255;-66
2023/07/30 11:50:50;;;;;;;4.40;1.90;;;21.40;99.90;;;;;;4978905;28;20196;-66
2023/07/30 11:53:17;;;;;;;4.30;1.80;;;21.70;99.90;;;;;;4986610;28;20207;-66
2023/07/30 11:55:45;;;;;;;2.30;1.58;;;21.60;99.90;;;;;;4974830;28;20973;-66
2023/07/30 11:58:13;;;;;;;3.63;1.85;;;21.60;99.90;;;;;;4996194;28;20201;-66
2023/07/30 12:00:41;;;;;;;4.60;1.80;;;21.50;99.90;;;;;;4985420;28;20911;-66
2023/07/30 12:03:12;;;;;;;6.90;1.70;;;21.40;99.90;;;;;;5000222;28;20213;-66
2023/07/30 12:05:40;;;;;;;3.40;1.58;;;21.70;99.90;;;;;;4988017;28;23018;-66
2023/07/30 12:08:19;;;;;;;3.25;1.70;;;21.70;99.90;;;;;;4992823;28;20209;-66
2023/07/30 12:10:49;;;;;;;3.08;2.17;;;21.60;99.90;;;;;;4974024;28;20254;-66
2023/07/30 12:13:20;;;;;;;4.07;1.77;;;21.60;99.90;;;;;;4999213;28;20658;-66
2023/07/30 12:15:52;;;;;;;2.28;1.67;;;21.50;99.90;;;;;;4994760;28;20217;-66
2023/07/30 12:18:19;;;;;;;3.85;1.60;;;21.60;99.90;;;;;;5001809;28;20196;-65
2023/07/30 12:20:47;;;;;;;4.10;1.77;;;21.70;99.90;;;;;;4995924;28;20208;-66
2023/07/30 12:23:15;;;;;;;4.35;1.67;;;21.90;99.90;;;;;;4996750;28;20813;-66
2023/07/30 12:25:42;;;;;;;5.40;1.45;;;22.10;99.90;;;;;;4972055;28;20390;-66
2023/07/30 12:28:08;;;;;;;3.05;1.55;;;22.20;99.90;;;;;;4994487;28;20208;-66
2023/07/30 12:30:36;;;;;;;5.03;1.58;;;22.30;99.90;;;;;;4991963;28;20199;-66
2023/07/30 12:33:03;;;;;;;5.68;1.92;;;22.40;99.90;;;;;;5005959;28;20188;-67
2023/07/30 12:35:30;;;;;;;7.53;2.00;;;22.30;99.90;;;;;;4984070;28;20309;-66
2023/07/30 12:37:57;;;;;;;5.75;2.03;;;22.40;99.90;;;;;;4982114;28;20200;-70
2023/07/30 12:40:26;;;;;;;4.30;2.10;;;22.40;99.90;;;;;;4983191;28;20201;-65
2023/07/30 12:42:53;;;;;;;3.40;1.52;;;22.30;99.90;;;;;;4983975;28;20213;-67
2023/07/30 12:45:20;;;;;;;7.70;1.95;;;22.20;99.90;;;;;;5000163;28;20227;-67